AirNav   Pilot Hours Calculator
 
 1414 users online  

25VA Toddsbury Farm Airport
Aylett, Virginia, USA

GOING TO AYLETT?


FAA INFORMATION EFFECTIVE 25 MARCH 2021

Location

FAA Identifier: 25VA
Lat/Long: 37-49-17.7000N 077-06-45.5000W
37-49.295000N 077-06.758333W
37.8215833,-77.1126389
(estimated)
Elevation: 50 ft. / 15 m (estimated)
Variation: 09W (1985)
From city: 2 miles N of AYLETT, VA
Time zone: UTC -4 (UTC -5 during Standard Time)
Zip code: 23148

Airport Operations

Airport use: Private use. Permission required prior to landing
Activation date: 08/1985
Control tower: no
ARTCC: WASHINGTON CENTER
FSS: LEESBURG FLIGHT SERVICE STATION
Attendance: DAWN-DUSK
Wind indicator: yes
Segmented circle: no

Airport Communications

WX AWOS-3 at XSA (11 nm E): 125.775 (804-445-8724)
WX ASOS at OFP (17 nm SW): 119.025 (804-752-2902)
WX AWOS-3 at W96 (19 nm S): 119.875 (804-932-8863)

Nearby radio navigation aids

VOR radial/distance  VOR name  Freq  Var
RICr036/21.5RICHMOND VORTAC114.1009W
HCMr327/29.4HARCUM VORTAC108.8007W
HPWr006/29.6HOPEWELL VORTAC112.0006W
BRVr169/32.9BROOKE VORTAC114.5009W
FAKr069/38.3FLAT ROCK VORTAC113.3006W

 
NDB name  Hdg/Dist  Freq  Var  ID
SHANNON159/31.123710WEZF . --.. ..-.

Airport Services

Runway Information

Runway 17/35

Dimensions: 2800 x 100 ft. / 853 x 30 m
Surface: turf
RUNWAY 17  RUNWAY 35
Traffic pattern: leftleft

Airport Ownership and Management from official FAA records

Ownership: Privately-owned
Owner: WILLIAM F. GRIGG
8627 CHIPPENHAM RD
RICHMOND, VA 23235-1909
Phone (804) 564-1234
Manager: WILLIAM F. GRIGG
8627 CHIPPENHAM RD
ST STEVENS CHURCH, VA 23235-1909
Phone (804) 564-1234

Airport Operational Statistics

Aircraft based on the field: 2
Ultralights: 2
    

Additional Remarks

FOR CD CTC POTOMAC APCH AT 866-640-4124.

Instrument Procedures

There are no published instrument procedures at 25VA.

Some nearby airports with instrument procedures:

KXSA - Tappahannock-Essex County Airport (11 nm E)
KOFP - Hanover County Municipal Airport (17 nm SW)
W96 - New Kent County Airport (19 nm S)
KRIC - Richmond International Airport (21 nm SW)
KFYJ - Middle Peninsula Regional Airport (25 nm SE)
 
Loc | Ops | Rwys | IFR | FBO | Links
Com | Nav | Svcs | Stats | Notes
Area around 25VA (Toddsbury Farm Airport)
 
Road maps at: MapQuest Bing Google
 
Aerial photo
No photo
 
Sectional chart

 
Airport distance calculator
Flying to Toddsbury Farm Airport? Find the distance to fly.

From to 25VA

Sunrise and sunset
Times for 12-Apr-2021
 Local
(UTC-4)
 Zulu
(UTC)
Morning civil twilight06:1210:12
Sunrise06:3910:39
Sunset19:4023:40
Evening civil twilight20:0700:07

Current date and time
Zulu (UTC)  12-Apr-2021 21:40:50
Local (UTC-4)  12-Apr-2021 17:40:50
 
METAR
KXSA 
11nm E 
122115Z AUTO 08007KT 10SM SCT065 BKN075 OVC090 A2974 RMK AO2
KOFP 
17nm SW 
122054Z AUTO 08004KT 10SM SCT080 OVC095 19/11 A2972 RMK AO2 SLP064 T01940106 53004
KW96 
19nm S 
122115Z AUTO 06006KT 10SM OVC090 18/12 A2971 RMK AO1 T01830118
KRIC 
21nm SW 
122054Z 06005KT 10SM SCT070 BKN090 19/10 A2971 RMK AO2 SLP063 T01940100 53004
TAF
KRIC 
21nm SW 
121740Z 1218/1318 30007KT P6SM SCT050 BKN070 FM122300 33008KT P6SM VCSH SCT035 BKN060 FM130300 01005KT P6SM OVC025 FM130700 VRB03KT P6SM OVC010 FM131400 01009KT P6SM SCT025 BKN040
NOTAMs
Click for the latest NOTAMs
NOTAMs are issued by the DoD/FAA and will open in a separate window not controlled by AirNav.

 

 
 

Would you like to see your business listed on this page?

 If your business provides an interesting product or service to pilots, flight crews, aircraft, or users of the Toddsbury Farm Airport, you should consider listing it here.  To start the listing process, click on the button below
 
Add a business
 

Other Pages about Toddsbury Farm Airport

Update a link
 
Copyright © AirNav, LLC. All rights reserved. Privacy Policy  Contact